createdAt,value
2018-11-11T00:02:27.046Z,6.70
2018-11-11T00:04:56.888Z,6.70
2018-11-11T00:07:26.670Z,6.70
2018-11-11T00:09:56.248Z,6.60
2018-11-11T00:12:26.352Z,6.60
2018-11-11T00:14:56.481Z,6.60
2018-11-11T00:17:25.965Z,6.60
2018-11-11T00:19:55.904Z,6.60
2018-11-11T00:22:25.938Z,6.60
2018-11-11T00:24:55.468Z,6.60
2018-11-11T00:27:25.219Z,6.60
2018-11-11T00:29:54.949Z,6.60
2018-11-11T00:32:24.278Z,6.50
2018-11-11T00:34:54.050Z,6.50
2018-11-11T00:37:23.597Z,6.50
2018-11-11T00:39:53.329Z,6.50
2018-11-11T00:42:23.148Z,6.40
2018-11-11T00:44:52.554Z,6.40
2018-11-11T00:47:22.049Z,6.40
2018-11-11T00:49:51.806Z,6.50
2018-11-11T00:52:28.088Z,6.50
2018-11-11T00:55:00.385Z,6.50
2018-11-11T00:57:34.065Z,6.50
2018-11-11T01:00:08.367Z,6.50
2018-11-11T01:02:45.564Z,6.50
2018-11-11T01:05:18.106Z,6.60
2018-11-11T01:07:50.538Z,6.50
2018-11-11T01:10:27.195Z,6.50
2018-11-11T01:12:57.083Z,6.60
2018-11-11T01:15:27.219Z,6.50
2018-11-11T01:17:59.246Z,6.50
2018-11-11T01:20:31.222Z,6.50
2018-11-11T01:23:01.909Z,6.50
2018-11-11T01:25:31.803Z,6.50
2018-11-11T01:28:01.845Z,6.50
2018-11-11T01:30:31.264Z,6.50
2018-11-11T01:33:00.386Z,6.50
2018-11-11T01:35:29.708Z,6.50
2018-11-11T01:37:59.025Z,6.50
2018-11-11T01:40:28.458Z,6.50
2018-11-11T01:42:57.721Z,6.50
2018-11-11T01:45:26.830Z,6.60
2018-11-11T01:47:56.160Z,6.60
2018-11-11T01:50:30.579Z,6.60
2018-11-11T01:53:01.155Z,6.60
2018-11-11T01:55:36.240Z,6.70
2018-11-11T01:58:05.976Z,6.70
2018-11-11T02:00:36.932Z,6.70
2018-11-11T02:03:17.176Z,6.70
2018-11-11T02:05:49.354Z,6.70
2018-11-11T02:08:24.971Z,6.70
2018-11-11T02:10:56.777Z,6.70
2018-11-11T02:13:29.201Z,6.70
2018-11-11T02:15:58.641Z,6.70
2018-11-11T02:18:27.915Z,6.70
2018-11-11T02:20:57.141Z,6.70
2018-11-11T02:23:27.027Z,6.70
2018-11-11T02:25:56.341Z,6.70
2018-11-11T02:28:25.483Z,6.70
2018-11-11T02:30:54.836Z,6.70
2018-11-11T02:33:24.245Z,6.60
2018-11-11T02:35:53.615Z,6.60
2018-11-11T02:38:23.169Z,6.50
2018-11-11T02:40:52.418Z,6.50
2018-11-11T02:43:21.722Z,6.50
2018-11-11T02:45:51.044Z,6.50
2018-11-11T02:48:20.463Z,6.60
2018-11-11T02:50:49.752Z,6.50
2018-11-11T02:53:18.761Z,6.50
2018-11-11T02:55:48.047Z,6.60
2018-11-11T02:58:17.384Z,6.60
2018-11-11T03:00:46.651Z,6.60
2018-11-11T03:03:15.711Z,6.60
2018-11-11T03:05:45.019Z,6.60
2018-11-11T03:08:14.292Z,6.70
2018-11-11T03:10:43.692Z,6.60
2018-11-11T03:13:13.695Z,6.70
2018-11-11T03:15:43.088Z,6.70
2018-11-11T03:18:12.071Z,6.70
2018-11-11T03:20:41.670Z,6.70
2018-11-11T03:23:11.065Z,6.70
2018-11-11T03:25:40.613Z,6.70
2018-11-11T03:28:09.887Z,6.80
2018-11-11T03:30:39.253Z,6.80
2018-11-11T03:33:08.805Z,6.80
2018-11-11T03:35:38.231Z,6.80
2018-11-11T03:38:07.701Z,6.80
2018-11-11T03:40:37.237Z,6.80
2018-11-11T03:43:06.931Z,6.80
2018-11-11T03:45:36.325Z,6.80
2018-11-11T03:48:05.908Z,6.90
2018-11-11T03:50:35.261Z,6.90
2018-11-11T03:53:04.562Z,6.90
2018-11-11T03:55:33.970Z,6.90
2018-11-11T03:58:03.227Z,6.90
2018-11-11T04:00:32.684Z,6.90
2018-11-11T04:03:01.952Z,6.90
2018-11-11T04:05:31.581Z,6.90
2018-11-11T04:08:00.761Z,6.90
2018-11-11T04:10:30.293Z,7.00
2018-11-11T04:12:59.560Z,7.00
2018-11-11T04:15:28.907Z,7.00
2018-11-11T04:17:58.275Z,7.00
2018-11-11T04:20:27.631Z,7.00
2018-11-11T04:22:57.071Z,7.00
2018-11-11T04:25:26.422Z,7.00
2018-11-11T04:27:55.704Z,7.00
2018-11-11T04:30:25.008Z,7.00
2018-11-11T04:32:54.427Z,7.00
2018-11-11T04:35:23.780Z,7.00
2018-11-11T04:37:53.132Z,7.00
2018-11-11T04:40:22.498Z,7.00
2018-11-11T04:42:51.848Z,7.00
2018-11-11T04:45:21.226Z,7.00
2018-11-11T04:47:50.229Z,7.00
2018-11-11T04:50:19.729Z,6.90
2018-11-11T04:52:49.144Z,7.00
2018-11-11T04:55:18.633Z,7.00
2018-11-11T04:57:48.047Z,7.00
2018-11-11T05:00:17.297Z,6.90
2018-11-11T05:02:46.783Z,6.90
2018-11-11T05:05:16.174Z,6.90
2018-11-11T05:07:45.580Z,6.90
2018-11-11T05:10:15.091Z,6.90
2018-11-11T05:12:44.597Z,6.90
2018-11-11T05:15:14.536Z,6.90
2018-11-11T05:17:43.948Z,6.90
2018-11-11T05:20:13.619Z,6.90
2018-11-11T05:22:43.415Z,6.90
2018-11-11T05:25:13.994Z,6.80
2018-11-11T05:27:43.784Z,6.80
2018-11-11T05:30:13.638Z,6.60
2018-11-11T05:32:43.074Z,6.60
2018-11-11T05:35:13.134Z,6.50
2018-11-11T05:37:42.841Z,6.50
2018-11-11T05:40:13.007Z,6.50
2018-11-11T05:42:42.809Z,6.60
2018-11-11T05:45:13.332Z,6.60
2018-11-11T05:47:43.084Z,6.60
2018-11-11T05:50:13.755Z,6.70
2018-11-11T05:52:43.627Z,6.70
2018-11-11T05:55:12.980Z,6.80
2018-11-11T05:57:42.577Z,6.80
2018-11-11T06:00:13.680Z,6.80
2018-11-11T06:02:42.832Z,6.80
2018-11-11T06:05:13.169Z,6.80
2018-11-11T06:07:42.504Z,6.80
2018-11-11T06:10:13.213Z,6.80
2018-11-11T06:12:42.664Z,6.80
2018-11-11T06:15:12.953Z,6.70
2018-11-11T06:17:42.419Z,6.70
2018-11-11T06:20:13.499Z,6.70
2018-11-11T06:22:42.918Z,6.70
2018-11-11T06:25:12.646Z,6.70
2018-11-11T06:27:42.060Z,6.70
2018-11-11T06:30:12.185Z,6.70
2018-11-11T06:32:41.259Z,6.70
2018-11-11T06:35:10.673Z,6.60
2018-11-11T06:37:40.496Z,6.60
2018-11-11T06:40:11.374Z,6.60
2018-11-11T06:42:41.125Z,6.60
2018-11-11T06:45:12.170Z,6.60
2018-11-11T06:47:42.025Z,6.50
2018-11-11T06:50:12.712Z,6.50
2018-11-11T06:52:42.749Z,6.40
2018-11-11T06:55:12.915Z,6.40
2018-11-11T06:57:42.307Z,6.50
2018-11-11T07:00:15.225Z,6.50
2018-11-11T07:02:55.370Z,6.40
2018-11-11T07:05:24.644Z,6.40
2018-11-11T07:07:54.020Z,6.50
2018-11-11T07:10:23.187Z,6.60
2018-11-11T07:12:52.513Z,6.60
2018-11-11T07:15:21.532Z,6.50
2018-11-11T07:17:50.902Z,6.60
2018-11-11T07:20:20.312Z,6.60
2018-11-11T07:22:49.643Z,6.70
2018-11-11T07:25:18.943Z,6.70
2018-11-11T07:27:48.238Z,6.80
2018-11-11T07:30:17.763Z,6.80
2018-11-11T07:32:47.120Z,7.00
2018-11-11T07:35:16.638Z,6.80
2018-11-11T07:37:45.933Z,7.00
2018-11-11T07:40:16.182Z,6.90
2018-11-11T07:42:45.161Z,7.00
2018-11-11T07:45:14.589Z,7.10
2018-11-11T07:47:43.877Z,7.10
2018-11-11T07:50:13.513Z,7.10
2018-11-11T07:52:42.873Z,7.40
2018-11-11T07:55:13.102Z,7.60
2018-11-11T07:57:42.762Z,7.70
2018-11-11T08:00:13.537Z,7.80
2018-11-11T08:02:43.351Z,7.90
2018-11-11T08:05:12.487Z,8.10
2018-11-11T08:07:41.896Z,8.30
2018-11-11T08:10:22.320Z,8.30
2018-11-11T08:12:51.872Z,8.30
2018-11-11T08:15:21.445Z,8.70
2018-11-11T08:17:50.779Z,8.90
2018-11-11T08:20:20.257Z,9.20
2018-11-11T08:22:49.575Z,9.40
2018-11-11T08:25:18.724Z,8.90
2018-11-11T08:27:47.948Z,8.40
2018-11-11T08:30:17.505Z,8.40
2018-11-11T08:32:46.860Z,8.40
2018-11-11T08:35:16.333Z,8.40
2018-11-11T08:37:45.760Z,8.30
2018-11-11T08:40:15.266Z,8.10
2018-11-11T08:42:44.803Z,8.10
2018-11-11T08:45:15.005Z,8.60
2018-11-11T08:47:45.062Z,8.70
2018-11-11T08:50:14.868Z,8.50
2018-11-11T08:52:44.173Z,8.40
2018-11-11T08:55:13.489Z,8.30
2018-11-11T08:57:43.023Z,8.30
2018-11-11T09:00:13.332Z,8.30
2018-11-11T09:02:42.907Z,8.30
2018-11-11T09:05:12.349Z,8.20
2018-11-11T09:07:41.900Z,8.30
2018-11-11T09:10:12.172Z,8.30
2018-11-11T09:12:41.829Z,8.40
2018-11-11T09:15:12.901Z,8.50
2018-11-11T09:17:42.858Z,8.50
2018-11-11T09:20:14.168Z,8.60
2018-11-11T09:22:43.883Z,8.60
2018-11-11T09:25:13.209Z,8.70
2018-11-11T09:27:43.090Z,8.50
2018-11-11T09:30:14.086Z,8.20
2018-11-11T09:32:43.884Z,8.00
2018-11-11T09:35:13.655Z,7.80
2018-11-11T09:37:42.891Z,7.80
2018-11-11T09:40:13.395Z,8.10
2018-11-11T09:42:42.949Z,8.60
2018-11-11T09:45:14.208Z,8.90
2018-11-11T09:47:44.065Z,9.20
2018-11-11T09:50:15.188Z,9.70
2018-11-11T09:52:44.845Z,10.00
2018-11-11T09:55:14.904Z,10.20
2018-11-11T09:57:44.013Z,10.20
2018-11-11T10:00:15.910Z,10.20
2018-11-11T10:02:49.579Z,10.10
2018-11-11T10:05:23.926Z,10.10
2018-11-11T10:07:58.476Z,10.20
2018-11-11T10:10:33.558Z,10.30
2018-11-11T10:13:17.582Z,10.50
2018-11-11T10:15:52.634Z,10.50
2018-11-11T10:18:27.960Z,10.30
2018-11-11T10:21:07.552Z,10.20
2018-11-11T10:25:46.882Z,10.30
2018-11-11T10:28:51.800Z,10.40
2018-11-11T10:31:31.020Z,10.50
2018-11-11T10:34:06.811Z,10.40
2018-11-11T10:36:44.625Z,10.40
2018-11-11T10:39:18.468Z,10.30
2018-11-11T10:41:52.336Z,10.40
2018-11-11T10:44:26.885Z,10.50
2018-11-11T10:47:03.343Z,10.80
2018-11-11T10:49:38.154Z,11.20
2018-11-11T10:52:07.408Z,11.30
2018-11-11T10:54:36.799Z,11.50
2018-11-11T10:57:06.526Z,11.30
2018-11-11T10:59:35.844Z,11.30
2018-11-11T11:02:10.404Z,11.40
2018-11-11T11:04:44.908Z,11.50
2018-11-11T11:07:14.321Z,11.60
2018-11-11T11:09:43.672Z,11.60
2018-11-11T11:12:13.299Z,11.30
2018-11-11T11:14:42.860Z,11.40
2018-11-11T11:17:12.644Z,11.40
2018-11-11T11:19:42.184Z,11.50
2018-11-11T11:22:11.809Z,11.60
2018-11-11T11:24:41.297Z,11.70
2018-11-11T11:27:10.462Z,11.80
2018-11-11T11:29:39.724Z,11.90
2018-11-11T11:32:09.195Z,12.00
2018-11-11T11:34:38.712Z,12.10
2018-11-11T11:37:07.707Z,12.10
2018-11-11T11:39:37.108Z,12.20
2018-11-11T11:42:06.935Z,12.10
2018-11-11T11:44:36.354Z,11.80
2018-11-11T11:47:06.451Z,11.90
2018-11-11T11:49:35.797Z,12.00
2018-11-11T11:52:05.595Z,11.80
2018-11-11T11:54:34.793Z,11.90
2018-11-11T11:57:04.198Z,12.10
2018-11-11T11:59:33.171Z,12.00
2018-11-11T12:02:02.655Z,11.80
2018-11-11T12:04:32.161Z,11.70
2018-11-11T12:07:01.649Z,11.70
2018-11-11T12:09:30.704Z,11.80
2018-11-11T12:11:59.968Z,12.00
2018-11-11T12:14:29.095Z,12.20
2018-11-11T12:16:58.533Z,12.40
2018-11-11T12:19:28.011Z,12.50
2018-11-11T12:21:57.505Z,12.50
2018-11-11T12:24:27.024Z,12.70
2018-11-11T12:26:56.696Z,12.70
2018-11-11T12:29:25.790Z,12.90
2018-11-11T12:31:55.226Z,12.80
2018-11-11T12:34:24.644Z,12.60
2018-11-11T12:36:53.714Z,12.40
2018-11-11T12:39:23.043Z,12.30
2018-11-11T12:41:52.717Z,12.10
2018-11-11T12:44:22.055Z,11.80
2018-11-11T12:46:51.642Z,11.70
2018-11-11T12:49:21.328Z,11.70
2018-11-11T12:51:50.407Z,11.80
2018-11-11T12:54:19.723Z,11.80
2018-11-11T12:56:48.782Z,11.90
2018-11-11T12:59:18.239Z,12.00
2018-11-11T13:01:47.585Z,12.10
2018-11-11T13:04:16.687Z,12.30
2018-11-11T13:06:45.955Z,12.40
2018-11-11T13:09:15.021Z,12.40
2018-11-11T13:11:44.555Z,12.50
2018-11-11T13:16:53.467Z,12.50
2018-11-11T13:19:21.529Z,12.50
2018-11-11T13:21:49.745Z,12.50
2018-11-11T13:24:17.868Z,12.40
2018-11-11T13:26:45.966Z,12.40
2018-11-11T13:29:14.135Z,12.30
2018-11-11T13:31:42.333Z,12.20
2018-11-11T13:34:10.477Z,12.20
2018-11-11T13:36:38.559Z,12.40
2018-11-11T13:39:10.089Z,12.90
2018-11-11T13:41:38.192Z,13.40
2018-11-11T13:44:06.895Z,13.90
2018-11-11T13:46:35.217Z,14.30
2018-11-11T13:49:03.109Z,14.40
2018-11-11T13:51:31.299Z,14.50
2018-11-11T13:53:59.597Z,14.40
2018-11-11T13:56:27.861Z,14.30
2018-11-11T13:58:55.945Z,14.10
2018-11-11T14:01:24.117Z,14.00
2018-11-11T14:03:52.178Z,13.80
2018-11-11T14:06:20.204Z,13.80
2018-11-11T14:08:48.530Z,13.60
2018-11-11T14:11:16.660Z,13.40
2018-11-11T14:13:44.682Z,13.30
2018-11-11T14:16:12.802Z,13.20
2018-11-11T14:18:41.216Z,13.00
2018-11-11T14:21:09.256Z,12.90
2018-11-11T14:23:37.295Z,12.90
2018-11-11T14:26:05.664Z,12.90
2018-11-11T14:28:33.709Z,12.80
2018-11-11T14:31:01.807Z,12.80
2018-11-11T14:33:30.044Z,12.70
2018-11-11T14:35:58.238Z,12.50
2018-11-11T14:38:26.481Z,12.50
2018-11-11T14:40:54.450Z,12.40
2018-11-11T14:43:22.616Z,12.30
2018-11-11T14:45:50.695Z,12.30
2018-11-11T14:48:18.849Z,12.30
2018-11-11T14:50:46.891Z,12.20
2018-11-11T14:53:14.976Z,12.20
2018-11-11T14:55:43.122Z,12.10
2018-11-11T14:58:11.238Z,12.00
2018-11-11T15:12:11.097Z,11.50
2018-11-11T15:14:39.424Z,11.40
2018-11-11T15:17:07.952Z,11.30
2018-11-11T15:19:36.317Z,11.20
2018-11-11T15:22:04.379Z,11.20
2018-11-11T15:24:32.495Z,11.20
2018-11-11T15:27:00.520Z,11.10
2018-11-11T15:29:28.644Z,11.00
2018-11-11T15:31:56.963Z,10.90
2018-11-11T15:34:27.931Z,10.70
2018-11-11T15:36:56.108Z,10.60
2018-11-11T15:39:24.307Z,10.60
2018-11-11T15:41:52.352Z,10.50
2018-11-11T15:44:20.661Z,10.40
2018-11-11T15:46:48.697Z,10.30
2018-11-11T15:49:16.921Z,10.30
2018-11-11T15:51:45.116Z,10.20
2018-11-11T15:54:13.232Z,10.20
2018-11-11T15:56:41.353Z,10.10
2018-11-11T15:59:09.396Z,10.10
2018-11-11T16:01:37.791Z,10.00
2018-11-11T16:04:06.379Z,9.80
2018-11-11T16:06:34.645Z,9.60
2018-11-11T16:09:02.824Z,9.40
2018-11-11T16:11:30.777Z,9.40
2018-11-11T16:13:59.396Z,9.30
2018-11-11T16:16:27.573Z,9.20
2018-11-11T16:18:55.836Z,9.20
2018-11-11T16:21:24.006Z,9.10
2018-11-11T16:23:52.189Z,9.00
2018-11-11T16:26:20.375Z,8.90
2018-11-11T16:28:48.476Z,8.80
2018-11-11T16:31:17.528Z,8.70
2018-11-11T16:33:45.826Z,8.70
2018-11-11T16:36:13.884Z,8.60
2018-11-11T16:38:42.084Z,8.50
2018-11-11T16:41:10.348Z,8.30
2018-11-11T16:43:38.535Z,8.30
2018-11-11T16:46:06.992Z,8.20
2018-11-11T16:50:38.766Z,8.10
2018-11-11T16:53:08.163Z,8.00
2018-11-11T16:55:36.979Z,7.90
2018-11-11T16:58:05.246Z,7.90
2018-11-11T17:00:34.817Z,7.80
2018-11-11T17:03:03.972Z,7.80
2018-11-11T17:05:33.308Z,7.60
2018-11-11T17:08:01.628Z,7.60
2018-11-11T17:10:31.385Z,7.40
2018-11-11T17:13:00.879Z,7.30
2018-11-11T17:15:29.981Z,7.30
2018-11-11T17:17:58.070Z,7.30
2018-11-11T17:20:26.714Z,7.40
2018-11-11T17:22:56.358Z,7.40
2018-11-11T17:25:25.408Z,7.50
2018-11-11T17:27:53.704Z,7.40
2018-11-11T17:30:23.924Z,7.30
2018-11-11T17:32:52.689Z,7.10
2018-11-11T17:35:20.984Z,6.90
2018-11-11T17:37:49.139Z,6.90
2018-11-11T17:40:21.235Z,6.90
2018-11-11T17:42:50.297Z,6.90
2018-11-11T17:45:18.696Z,6.70
2018-11-11T17:47:47.723Z,6.60
2018-11-11T17:50:19.055Z,6.80
2018-11-11T17:52:47.148Z,6.80
2018-11-11T17:55:16.476Z,6.90
2018-11-11T17:57:44.757Z,6.70
2018-11-11T18:00:17.321Z,6.60
2018-11-11T18:02:45.454Z,6.50
2018-11-11T18:05:14.563Z,6.40
2018-11-11T18:07:42.651Z,6.30
2018-11-11T18:10:14.785Z,6.10
2018-11-11T18:12:43.079Z,6.10
2018-11-11T18:15:12.729Z,6.00
2018-11-11T18:17:41.432Z,6.10
2018-11-11T18:20:12.538Z,6.10
2018-11-11T18:22:40.592Z,6.10
2018-11-11T18:25:08.981Z,6.20
2018-11-11T18:27:37.236Z,6.30
2018-11-11T18:30:09.568Z,6.20
2018-11-11T18:32:37.981Z,6.10
2018-11-11T18:35:07.873Z,6.00
2018-11-11T18:37:35.970Z,5.80
2018-11-11T18:40:04.652Z,5.90
2018-11-11T18:42:32.600Z,6.00
2018-11-11T18:45:00.844Z,6.20
2018-11-11T18:47:28.876Z,6.30
2018-11-11T18:49:56.963Z,6.30
2018-11-11T18:52:25.018Z,6.10
2018-11-11T18:54:53.236Z,6.00
2018-11-11T18:57:21.516Z,5.90
2018-11-11T18:59:49.519Z,5.90
2018-11-11T19:02:18.297Z,5.80
2018-11-11T19:04:46.492Z,5.70
2018-11-11T19:07:14.718Z,5.70
2018-11-11T19:09:42.930Z,5.70
2018-11-11T19:12:11.376Z,5.70
2018-11-11T19:14:39.587Z,5.90
2018-11-11T19:17:07.804Z,5.90
2018-11-11T19:19:35.984Z,5.90
2018-11-11T19:22:04.247Z,6.00
2018-11-11T19:24:32.545Z,6.00
2018-11-11T19:27:00.511Z,6.00
2018-11-11T19:29:28.620Z,5.90
2018-11-11T19:31:56.776Z,5.70
2018-11-11T19:34:24.849Z,5.50
2018-11-11T19:36:53.032Z,5.20
2018-11-11T19:39:21.213Z,5.20
2018-11-11T19:41:49.527Z,5.30
2018-11-11T19:44:17.613Z,5.20
2018-11-11T19:46:45.704Z,5.20
2018-11-11T19:49:13.799Z,5.10
2018-11-11T19:51:42.086Z,4.70
2018-11-11T19:54:10.136Z,4.10
2018-11-11T19:56:38.152Z,4.20
2018-11-11T19:59:06.788Z,4.20
2018-11-11T20:01:35.008Z,4.10
2018-11-11T20:04:03.463Z,4.20
2018-11-11T20:06:31.659Z,4.30
2018-11-11T20:08:59.688Z,4.20
2018-11-11T20:11:27.929Z,4.10
2018-11-11T20:13:55.919Z,4.30
2018-11-11T20:16:24.045Z,4.60
2018-11-11T20:18:52.194Z,4.50
2018-11-11T20:21:20.272Z,4.50
2018-11-11T20:23:48.646Z,4.40
2018-11-11T20:26:16.653Z,4.30
2018-11-11T20:28:44.672Z,4.20
2018-11-11T20:31:12.783Z,4.10
2018-11-11T20:33:40.723Z,4.20
2018-11-11T20:36:09.020Z,4.60
2018-11-11T20:38:37.316Z,4.90
2018-11-11T20:41:05.679Z,5.10
2018-11-11T20:43:34.146Z,5.10
2018-11-11T20:46:02.444Z,5.10
2018-11-11T20:48:30.704Z,5.00
2018-11-11T20:50:58.903Z,5.10
2018-11-11T20:53:27.139Z,4.60
2018-11-11T20:55:55.390Z,4.20
2018-11-11T20:58:23.626Z,4.10
2018-11-11T21:00:51.771Z,4.00
2018-11-11T21:03:19.871Z,4.20
2018-11-11T21:05:48.096Z,4.30
2018-11-11T21:08:16.329Z,4.20
2018-11-11T21:10:44.447Z,4.00
2018-11-11T21:13:12.508Z,3.80
2018-11-11T21:15:40.604Z,3.80
2018-11-11T21:18:09.235Z,3.90
2018-11-11T21:20:37.289Z,3.90
2018-11-11T21:23:05.968Z,3.90
2018-11-11T21:25:34.124Z,3.80
2018-11-11T21:28:02.846Z,3.60
2018-11-11T21:30:31.603Z,3.50
2018-11-11T21:32:59.737Z,3.50
2018-11-11T21:35:27.856Z,3.40
2018-11-11T21:37:55.988Z,3.40
2018-11-11T21:40:25.041Z,3.40
2018-11-11T21:42:54.123Z,3.40
2018-11-11T21:45:23.286Z,3.50
2018-11-11T21:47:51.408Z,3.50
2018-11-11T21:50:20.654Z,3.60
2018-11-11T21:53:17.050Z,3.60
2018-11-11T21:55:45.159Z,3.60
2018-11-11T21:58:13.182Z,3.70
2018-11-11T22:00:41.289Z,3.70
2018-11-11T22:03:09.369Z,3.60
2018-11-11T22:05:37.424Z,3.50
2018-11-11T22:08:05.516Z,3.30
2018-11-11T22:10:33.736Z,3.20
2018-11-11T22:13:02.093Z,3.20
2018-11-11T22:15:30.152Z,3.20
2018-11-11T22:17:58.198Z,3.20
2018-11-11T22:20:26.294Z,3.00
2018-11-11T22:22:54.357Z,3.00
2018-11-11T22:25:22.467Z,2.90
2018-11-11T22:27:50.604Z,2.90
2018-11-11T22:30:18.740Z,3.00
2018-11-11T22:32:46.876Z,3.00
2018-11-11T22:35:15.014Z,3.00
2018-11-11T22:37:43.087Z,3.00
2018-11-11T22:40:12.815Z,3.00
2018-11-11T22:42:41.755Z,3.00
2018-11-11T22:45:13.172Z,3.10
2018-11-11T22:47:42.235Z,3.10
2018-11-11T22:50:12.805Z,3.10
2018-11-11T22:52:41.059Z,3.10
2018-11-11T22:55:10.281Z,3.10
2018-11-11T22:57:38.494Z,3.10
2018-11-11T23:00:15.424Z,3.20
2018-11-11T23:02:43.803Z,3.30
2018-11-11T23:05:12.016Z,3.60
2018-11-11T23:07:42.159Z,3.70
2018-11-11T23:10:11.926Z,3.70
2018-11-11T23:12:40.323Z,3.70
2018-11-11T23:15:09.691Z,3.70
2018-11-11T23:17:37.773Z,3.70
2018-11-11T23:20:07.805Z,3.70
2018-11-11T23:22:35.876Z,3.60
2018-11-11T23:25:04.108Z,3.60
2018-11-11T23:27:32.214Z,3.60
2018-11-11T23:30:00.293Z,3.50
2018-11-11T23:32:28.336Z,3.40
2018-11-11T23:34:56.424Z,3.30
2018-11-11T23:37:24.624Z,3.30
2018-11-11T23:39:52.640Z,3.20
2018-11-11T23:42:20.771Z,3.20
2018-11-11T23:44:48.810Z,3.10
2018-11-11T23:47:16.864Z,3.10
2018-11-11T23:49:44.987Z,2.90
2018-11-11T23:52:13.003Z,2.60
2018-11-11T23:54:41.137Z,2.50
2018-11-11T23:57:09.253Z,2.40
2018-11-11T23:59:37.572Z,2.50
